Time;durP1;ratioP1;P1;durP2;ratioP2;P2;SDS_P1;SDS_P2;PMS_P1;PMS_P2;Temp;Humidity;BMP_temperature;BMP_pressure;BME280_temperature;BME280_humidity;BME280_pressure;Samples;Min_cycle;Max_cycle;Signal;HPM_P1;HPM_P2
2021/12/15 00:01:08;;;;;;;7.60;6.82;;;8.70;99.90;;;;;;5070395;28;20054;-74
2021/12/15 00:03:35;;;;;;;7.47;6.75;;;8.70;99.90;;;;;;5070660;28;20385;-76
2021/12/15 00:06:03;;;;;;;7.97;7.18;;;8.70;99.90;;;;;;5070446;28;20050;-74
2021/12/15 00:08:30;;;;;;;8.93;8.10;;;8.70;99.90;;;;;;5070424;28;20036;-75
2021/12/15 00:10:56;;;;;;;8.38;7.57;;;8.70;99.90;;;;;;5070541;28;20017;-75
2021/12/15 00:13:23;;;;;;;7.65;6.90;;;8.70;99.90;;;;;;5070188;28;20360;-74
2021/12/15 00:15:49;;;;;;;7.13;6.43;;;8.70;99.90;;;;;;5070075;28;20503;-75
2021/12/15 00:18:15;;;;;;;8.35;7.65;;;8.70;99.90;;;;;;5068926;28;20025;-75
2021/12/15 00:20:43;;;;;;;6.55;5.93;;;8.70;99.90;;;;;;5069973;28;20037;-73
2021/12/15 00:23:09;;;;;;;7.78;7.10;;;8.80;99.90;;;;;;5069947;28;20024;-76
2021/12/15 00:25:39;;;;;;;6.10;5.53;;;8.80;99.90;;;;;;5068799;28;20056;-76
2021/12/15 00:28:05;;;;;;;7.25;6.65;;;8.80;99.90;;;;;;5070011;28;20025;-74
2021/12/15 00:30:31;;;;;;;;;;;8.80;99.90;;;;;;5070483;28;20048;-74
2021/12/15 00:32:57;;;;;;;6.50;5.90;;;8.80;99.90;;;;;;5070136;28;19943;-74
2021/12/15 00:35:23;;;;;;;8.15;7.43;;;8.80;99.90;;;;;;5069951;28;20518;-73
2021/12/15 00:37:50;;;;;;;8.93;7.47;;;8.80;99.90;;;;;;5069786;28;20127;-73
2021/12/15 00:40:18;;;;;;;5.97;5.45;;;8.70;99.90;;;;;;5069873;28;20021;-75
2021/12/15 00:42:44;;;;;;;6.75;6.15;;;8.80;99.90;;;;;;5069774;28;20035;-74
2021/12/15 00:45:10;;;;;;;7.05;6.45;;;8.80;99.90;;;;;;5070087;28;20024;-72
2021/12/15 00:47:36;;;;;;;;;;;8.80;99.90;;;;;;5070104;28;20041;-74
2021/12/15 00:50:06;;;;;;;7.40;5.85;;;8.80;99.90;;;;;;5069605;28;19934;-74
2021/12/15 00:52:37;;;;;;;5.88;5.32;;;8.80;99.90;;;;;;5068499;28;20024;-74
2021/12/15 00:55:06;;;;;;;6.90;6.20;;;8.80;99.90;;;;;;5069493;28;20042;-76
2021/12/15 00:57:32;;;;;;;10.20;6.10;;;8.90;99.90;;;;;;5069179;28;20051;-75
2021/12/15 00:59:58;;;;;;;6.40;5.90;;;8.90;99.90;;;;;;5069481;28;20027;-76
2021/12/15 01:02:24;;;;;;;7.00;6.40;;;9.00;99.90;;;;;;5069427;28;20025;-75
2021/12/15 01:04:50;;;;;;;6.97;6.38;;;9.00;99.90;;;;;;5067996;28;20024;-75
2021/12/15 01:07:16;;;;;;;7.28;6.68;;;9.00;99.90;;;;;;5067871;28;20040;-75
2021/12/15 01:09:48;;;;;;;6.18;5.68;;;9.00;99.90;;;;;;5069276;28;20128;-75
2021/12/15 01:12:34;;;;;;;6.05;5.45;;;9.00;99.90;;;;;;5069298;28;20048;-75
2021/12/15 01:20:40;;;;;;;5.70;4.20;;;9.10;99.90;;;;;;5069043;28;20031;-75
2021/12/15 01:23:11;;;;;;;5.43;3.92;;;9.10;99.90;;;;;;5069079;28;20027;-75
2021/12/15 01:25:45;;;;;;;5.90;4.28;;;9.10;99.90;;;;;;5068865;28;20029;-77
2021/12/15 01:28:12;;;;;;;4.32;3.90;;;9.20;99.90;;;;;;5068828;28;20032;-74
2021/12/15 01:30:42;;;;;;;4.32;3.60;;;9.20;99.90;;;;;;5068886;28;20020;-76
2021/12/15 01:33:09;;;;;;;8.18;3.72;;;9.20;99.90;;;;;;5068764;28;20554;-76
2021/12/15 01:35:38;;;;;;;4.07;3.15;;;9.30;99.90;;;;;;5068522;28;20305;-75
2021/12/15 01:38:05;;;;;;;3.42;2.65;;;9.40;99.90;;;;;;5068725;28;20421;-77
2021/12/15 01:40:36;;;;;;;3.72;3.13;;;9.40;99.90;;;;;;5068588;28;20032;-76
2021/12/15 01:43:20;;;;;;;7.60;3.85;;;9.40;99.90;;;;;;5068641;28;20021;-75
2021/12/15 01:48:35;;;;;;;4.45;3.20;;;9.50;99.90;;;;;;5068423;28;20121;-75
2021/12/15 01:51:02;;;;;;;5.93;3.38;;;9.50;99.90;;;;;;5068426;28;20028;-74
2021/12/15 01:53:28;;;;;;;5.95;3.40;;;9.50;99.90;;;;;;5068311;28;20025;-76
2021/12/15 01:55:55;;;;;;;9.50;3.33;;;9.40;99.90;;;;;;5067989;28;20483;-76
2021/12/15 01:58:21;;;;;;;3.95;3.00;;;9.40;99.90;;;;;;5067117;28;20044;-76
2021/12/15 02:00:57;;;;;;;6.97;3.78;;;9.40;99.90;;;;;;5068259;28;20039;-77
2021/12/15 02:03:24;;;;;;;3.92;3.28;;;9.40;99.90;;;;;;5068312;28;20051;-77
2021/12/15 02:05:50;;;;;;;5.43;2.95;;;9.40;99.90;;;;;;5067549;28;20029;-74
2021/12/15 02:08:16;;;;;;;4.35;2.50;;;9.40;99.90;;;;;;5068185;28;20060;-75
2021/12/15 02:10:43;;;;;;;;;;;9.40;99.90;;;;;;5068600;28;20029;-77
2021/12/15 02:13:14;;;;;;;4.33;2.40;;;9.40;99.90;;;;;;5068157;28;19904;-76
2021/12/15 02:15:44;;;;;;;3.03;2.15;;;9.40;99.90;;;;;;5066584;28;20495;-75
2021/12/15 02:18:12;;;;;;;4.35;3.35;;;9.40;99.90;;;;;;5068270;28;20031;-77
2021/12/15 02:20:41;;;;;;;3.40;2.95;;;9.40;99.90;;;;;;5066592;28;20020;-77
2021/12/15 02:23:10;;;;;;;3.90;2.85;;;9.30;99.90;;;;;;5067975;28;20538;-77
2021/12/15 02:25:36;;;;;;;4.68;3.40;;;9.30;99.90;;;;;;5067818;28;20047;-75
2021/12/15 02:28:06;;;;;;;6.85;3.83;;;9.20;99.90;;;;;;5067999;28;20026;-78
2021/12/15 02:38:18;;;;;;;3.90;3.17;;;8.90;99.90;;;;;;5066993;28;20044;-75
2021/12/15 02:40:45;;;;;;;7.32;4.10;;;8.90;99.90;;;;;;5067722;28;20539;-76
2021/12/15 02:43:12;;;;;;;4.55;3.28;;;8.80;99.90;;;;;;5067730;28;20021;-74
2021/12/15 02:45:37;;;;;;;4.03;3.42;;;8.80;99.90;;;;;;5067593;28;20025;-76
2021/12/15 02:48:04;;;;;;;4.20;3.80;;;8.70;99.90;;;;;;5067664;28;20082;-76
2021/12/15 02:50:31;;;;;;;6.93;4.53;;;8.70;99.90;;;;;;5066344;28;20043;-74
2021/12/15 02:52:58;;;;;;;5.28;4.00;;;8.60;99.90;;;;;;5067487;28;20323;-74
2021/12/15 02:55:25;;;;;;;5.75;4.40;;;8.60;99.90;;;;;;5066080;28;20057;-76
2021/12/15 02:57:51;;;;;;;6.13;4.30;;;8.60;99.90;;;;;;5067520;28;20059;-78
2021/12/15 03:00:28;;;;;;;7.35;4.90;;;8.60;99.90;;;;;;5066400;28;20024;-76
2021/12/15 03:05:46;;;;;;;5.68;4.22;;;8.50;99.90;;;;;;5067569;28;20024;-75
2021/12/15 03:08:46;;;;;;;7.28;4.68;;;8.40;99.90;;;;;;5067538;28;20020;-77
2021/12/15 03:16:36;;;;;;;5.35;4.95;;;8.30;99.90;;;;;;5067382;28;20760;-77
2021/12/15 03:19:02;;;;;;;6.53;5.72;;;8.30;99.90;;;;;;5070459;28;20108;-75
2021/12/15 03:21:28;;;;;;;5.03;4.15;;;8.30;99.90;;;;;;5071386;28;20021;-77
2021/12/15 03:23:58;;;;;;;4.47;3.95;;;8.30;99.90;;;;;;5070027;28;20016;-77
2021/12/15 03:26:31;;;;;;;5.47;4.10;;;8.30;99.90;;;;;;5071168;28;20315;-76
2021/12/15 03:35:00;;;;;;;5.70;3.55;;;8.30;99.90;;;;;;5071710;28;20075;-75
2021/12/15 03:37:28;;;;;;;6.55;3.90;;;8.40;99.90;;;;;;5069557;28;20059;-76
2021/12/15 03:40:03;;;;;;;4.85;4.35;;;8.40;99.90;;;;;;5071015;28;20077;-75
2021/12/15 03:42:34;;;;;;;4.20;3.80;;;8.40;99.90;;;;;;5071006;28;20031;-75
2021/12/15 03:45:04;;;;;;;5.55;4.22;;;8.40;99.90;;;;;;5070959;28;20098;-75
2021/12/15 03:47:32;;;;;;;4.82;4.35;;;8.40;99.90;;;;;;5070587;28;20047;-76
2021/12/15 03:49:59;;;;;;;9.63;4.45;;;8.40;99.90;;;;;;5070770;28;20032;-77
2021/12/15 03:52:25;;;;;;;5.70;4.28;;;8.40;99.90;;;;;;5070754;28;20032;-77
2021/12/15 03:54:52;;;;;;;6.05;4.90;;;8.40;99.90;;;;;;5070701;28;20025;-78
2021/12/15 03:57:20;;;;;;;8.32;3.83;;;8.40;99.90;;;;;;5070329;28;20052;-75
2021/12/15 03:59:46;;;;;;;4.63;3.92;;;8.30;99.90;;;;;;5069363;28;20038;-74
2021/12/15 04:02:13;;;;;;;;;;;8.40;99.90;;;;;;5071106;28;20028;-76
2021/12/15 04:04:40;;;;;;;5.32;3.60;;;8.40;99.90;;;;;;5069350;28;19905;-75
2021/12/15 04:07:07;;;;;;;6.95;4.65;;;8.40;99.90;;;;;;5070549;28;20037;-75
2021/12/15 04:09:33;;;;;;;5.40;4.70;;;8.40;99.90;;;;;;5070529;28;20090;-77
2021/12/15 04:12:00;;;;;;;6.22;5.35;;;8.30;99.90;;;;;;5070490;28;20048;-78
2021/12/15 04:14:33;;;;;;;5.45;4.28;;;8.30;99.90;;;;;;5070323;28;20106;-74
2021/12/15 04:17:02;;;;;;;4.22;3.63;;;8.30;99.90;;;;;;5070324;28;20040;-75
2021/12/15 04:19:28;;;;;;;3.75;3.25;;;8.30;99.90;;;;;;5070280;28;20028;-75
2021/12/15 04:21:54;;;;;;;4.00;3.40;;;8.30;99.90;;;;;;5068946;28;20031;-75
2021/12/15 04:24:20;;;;;;;7.18;3.25;;;8.40;99.90;;;;;;5069008;28;20526;-74
2021/12/15 04:26:48;;;;;;;6.20;5.03;;;8.40;99.90;;;;;;5070214;28;20060;-75
2021/12/15 04:29:14;;;;;;;8.40;4.78;;;8.40;99.90;;;;;;5068183;28;20037;-75
2021/12/15 04:31:48;;;;;;;5.38;4.97;;;8.40;99.90;;;;;;5070185;28;20024;-73
2021/12/15 04:34:15;;;;;;;7.15;5.47;;;8.40;99.90;;;;;;5070089;28;20425;-76
2021/12/15 04:36:42;;;;;;;;;;;8.40;99.90;;;;;;5070302;28;20089;-74
2021/12/15 04:39:18;;;;;;;4.85;4.45;;;8.30;99.90;;;;;;5069969;28;19911;-74
2021/12/15 04:41:48;;;;;;;4.90;4.45;;;8.30;99.90;;;;;;5068658;28;20360;-76
2021/12/15 04:44:16;;;;;;;5.57;5.10;;;8.30;99.90;;;;;;5068519;28;20032;-74
2021/12/15 04:46:47;;;;;;;6.25;4.88;;;8.30;99.90;;;;;;5068319;28;20032;-75
2021/12/15 04:49:17;;;;;;;9.82;5.18;;;8.30;99.90;;;;;;5069526;28;20023;-77
2021/12/15 04:51:43;;;;;;;9.07;5.38;;;8.30;99.90;;;;;;5068181;28;20032;-75
2021/12/15 04:54:09;;;;;;;10.55;4.22;;;8.30;99.90;;;;;;5068160;28;20025;-75
2021/12/15 04:56:35;;;;;;;4.20;3.90;;;8.40;99.90;;;;;;5069155;28;20036;-77
2021/12/15 04:59:01;;;;;;;6.90;4.88;;;8.40;99.90;;;;;;5068107;28;20436;-74
2021/12/15 05:01:27;;;;;;;6.60;4.60;;;8.50;99.90;;;;;;5069239;28;20028;-75
2021/12/15 05:03:53;;;;;;;6.40;5.20;;;8.50;99.90;;;;;;5069267;28;20051;-77
2021/12/15 05:06:19;;;;;;;6.82;4.75;;;8.50;99.90;;;;;;5068063;28;20028;-76
2021/12/15 05:08:45;;;;;;;5.63;4.97;;;8.50;99.90;;;;;;5068147;28;20573;-75
2021/12/15 05:11:12;;;;;;;10.00;4.75;;;8.50;99.90;;;;;;5069315;28;20036;-75
2021/12/15 05:13:38;;;;;;;6.50;6.00;;;8.50;99.90;;;;;;5069266;28;20115;-75
2021/12/15 05:16:05;;;;;;;10.50;5.97;;;8.60;99.90;;;;;;5069067;28;20414;-75
2021/12/15 05:18:31;;;;;;;7.18;5.50;;;8.60;99.90;;;;;;5069273;28;20103;-75
2021/12/15 05:20:59;;;;;;;;;;;8.50;99.90;;;;;;5068243;28;20567;-75
2021/12/15 05:23:31;;;;;;;8.45;4.38;;;8.60;99.90;;;;;;5069047;28;20355;-78
2021/12/15 05:25:58;;;;;;;8.15;4.20;;;8.60;99.90;;;;;;5069044;28;20437;-77
2021/12/15 05:28:25;;;;;;;5.32;4.05;;;8.60;99.90;;;;;;5068912;28;20082;-77
2021/12/15 05:30:51;;;;;;;6.70;4.85;;;8.70;99.90;;;;;;5068925;28;20024;-77
2021/12/15 05:33:17;;;;;;;;;;;8.70;99.90;;;;;;5068038;28;20036;-75
2021/12/15 05:35:43;;;;;;;4.78;4.30;;;8.70;99.90;;;;;;5101337;28;19908;-76
2021/12/15 05:38:09;;;;;;;4.90;4.50;;;8.80;99.90;;;;;;5068798;28;20032;-77
2021/12/15 05:40:36;;;;;;;8.77;5.15;;;8.80;99.90;;;;;;5067713;28;20413;-71
2021/12/15 05:43:03;;;;;;;6.63;4.80;;;8.70;99.90;;;;;;5068541;28;20509;-76
2021/12/15 05:45:32;;;;;;;8.07;4.57;;;8.80;99.90;;;;;;5068504;28;20040;-75
2021/12/15 05:47:59;;;;;;;5.10;4.70;;;8.80;99.90;;;;;;5067258;28;20031;-78
2021/12/15 05:50:28;;;;;;;6.32;5.10;;;8.80;99.90;;;;;;5068498;28;20025;-77
2021/12/15 05:52:55;;;;;;;5.60;4.68;;;8.80;99.90;;;;;;5068479;28;20239;-75
2021/12/15 05:55:21;;;;;;;5.10;3.88;;;8.80;99.90;;;;;;5068408;28;20059;-77
2021/12/15 05:57:47;;;;;;;4.82;4.53;;;8.80;99.90;;;;;;5067951;28;20174;-74
2021/12/15 06:00:16;;;;;;;5.57;4.97;;;8.80;99.90;;;;;;5068293;28;20136;-76
2021/12/15 06:02:43;;;;;;;7.05;4.93;;;8.90;99.90;;;;;;5068191;28;20024;-79
2021/12/15 06:05:09;;;;;;;6.00;4.55;;;8.90;99.90;;;;;;5068283;28;20473;-75
2021/12/15 06:07:36;;;;;;;12.68;5.30;;;8.90;99.90;;;;;;5066795;28;20506;-75
2021/12/15 06:10:03;;;;;;;;;;;8.90;99.90;;;;;;5068544;28;20036;-76
2021/12/15 06:12:28;;;;;;;5.28;4.78;;;9.00;99.90;;;;;;5068162;28;19951;-73
2021/12/15 06:14:54;;;;;;;8.32;5.40;;;9.00;99.90;;;;;;5066982;28;20105;-77
2021/12/15 06:17:25;;;;;;;5.75;4.55;;;9.00;99.90;;;;;;5067853;28;20032;-76
2021/12/15 06:19:54;;;;;;;5.95;4.70;;;9.00;99.90;;;;;;5051029;28;20035;-73
2021/12/15 06:22:25;;;;;;;6.28;4.00;;;9.00;99.90;;;;;;5068003;28;20029;-75
2021/12/15 06:24:52;;;;;;;4.53;3.72;;;9.00;99.90;;;;;;5066617;28;20067;-76
2021/12/15 06:27:20;;;;;;;8.40;4.78;;;9.10;99.90;;;;;;5067680;28;20495;-77
2021/12/15 06:29:48;;;;;;;8.25;4.28;;;9.10;99.90;;;;;;5049944;28;20037;-74
2021/12/15 06:32:15;;;;;;;4.55;4.03;;;9.20;99.90;;;;;;5067587;28;20040;-75
2021/12/15 06:34:41;;;;;;;6.65;4.47;;;9.20;99.90;;;;;;5067948;28;20337;-76
2021/12/15 06:37:07;;;;;;;5.10;4.35;;;9.20;99.90;;;;;;5067551;28;20032;-75
2021/12/15 06:39:33;;;;;;;6.97;4.13;;;9.30;99.90;;;;;;5067808;28;20127;-76
2021/12/15 06:41:59;;;;;;;5.68;4.03;;;9.30;99.90;;;;;;5067780;28;20036;-76
2021/12/15 06:44:25;;;;;;;6.90;5.20;;;9.30;99.90;;;;;;5066420;28;20110;-74
2021/12/15 07:00:31;;;;;;;6.25;3.67;;;9.30;99.90;;;;;;5067329;28;20024;-76
2021/12/15 07:02:58;;;;;;;3.45;3.08;;;9.30;99.90;;;;;;5067790;28;20421;-74
2021/12/15 07:05:25;;;;;;;5.53;3.22;;;9.40;99.90;;;;;;5065808;28;20476;-74
2021/12/15 07:07:52;;;;;;;8.15;3.65;;;9.50;99.90;;;;;;5067045;28;20043;-75
2021/12/15 07:10:22;;;;;;;6.05;3.40;;;9.50;99.90;;;;;;5067011;28;20169;-75
2021/12/15 07:12:50;;;;;;;4.68;2.75;;;9.60;99.90;;;;;;5067264;28;20029;-74
2021/12/15 07:15:16;;;;;;;6.53;3.20;;;9.60;99.90;;;;;;5067098;28;20049;-74
2021/12/15 07:17:44;;;;;;;6.00;4.10;;;9.70;99.90;;;;;;5067175;28;20510;-76
2021/12/15 07:20:48;;;;;;;15.48;6.43;;;9.60;99.90;;;;;;5067010;28;20467;-77
2021/12/15 07:23:07;;;;;;;5.28;3.78;;;9.60;99.90;;;;;;5066798;28;20051;-74
2021/12/15 07:25:33;;;;;;;8.48;3.80;;;9.50;99.90;;;;;;5066951;28;20028;-76
2021/12/15 07:27:59;;;;;;;7.90;5.10;;;9.50;99.90;;;;;;5066900;28;20043;-76
2021/12/15 07:30:26;;;;;;;6.78;4.57;;;9.40;99.90;;;;;;5066769;28;20399;-76
2021/12/15 07:32:52;;;;;;;4.63;4.22;;;9.30;99.90;;;;;;5065705;28;20028;-74
2021/12/15 07:35:19;;;;;;;10.73;4.03;;;9.30;99.90;;;;;;5066950;28;20029;-73
2021/12/15 07:37:45;;;;;;;7.20;4.50;;;9.30;99.90;;;;;;5067099;28;20471;-74
2021/12/15 07:40:20;;;;;;;10.27;3.70;;;9.30;99.90;;;;;;5066060;28;20375;-75
2021/12/15 07:43:48;;;;;;;5.60;4.20;;;9.20;99.90;;;;;;5067054;28;20478;-76
2021/12/15 07:45:50;;;;;;;8.75;4.45;;;9.30;99.90;;;;;;5065877;28;20115;-76
2021/12/15 07:48:17;;;;;;;8.55;4.10;;;9.30;99.90;;;;;;5065916;28;20491;-73
2021/12/15 07:50:47;;;;;;;6.97;4.40;;;9.30;99.90;;;;;;5065543;28;20496;-74
2021/12/15 07:53:14;;;;;;;6.38;4.03;;;9.30;99.90;;;;;;5066947;28;20414;-75
2021/12/15 07:55:40;;;;;;;6.18;4.47;;;9.30;99.90;;;;;;5065210;28;20025;-73
2021/12/15 07:58:08;;;;;;;8.63;5.03;;;9.30;99.90;;;;;;5065925;28;20523;-74
2021/12/15 08:00:35;;;;;;;6.50;3.78;;;9.30;99.90;;;;;;5065622;28;20025;-74
2021/12/15 08:03:01;;;;;;;6.28;4.20;;;9.30;99.90;;;;;;5066703;28;20029;-76
2021/12/15 08:05:27;;;;;;;8.88;3.88;;;9.30;99.90;;;;;;5070052;28;20028;-75
2021/12/15 08:07:53;;;;;;;;;;;9.40;99.90;;;;;;5070751;28;20036;-76
2021/12/15 08:10:19;;;;;;;7.22;3.42;;;9.50;99.90;;;;;;5070219;28;20334;-74
2021/12/15 08:12:46;;;;;;;11.32;3.80;;;9.50;99.90;;;;;;5068467;28;20037;-76
2021/12/15 08:15:14;;;;;;;6.78;3.97;;;9.60;99.90;;;;;;5070164;28;20564;-75
2021/12/15 08:17:42;;;;;;;8.68;3.70;;;9.60;99.90;;;;;;5068659;28;20456;-75
2021/12/15 08:20:10;;;;;;;4.97;3.58;;;9.70;99.90;;;;;;5069729;28;20021;-74
2021/12/15 08:22:38;;;;;;;5.45;3.88;;;9.80;99.90;;;;;;5069566;28;20017;-76
2021/12/15 08:25:05;;;;;;;5.63;3.88;;;9.80;99.90;;;;;;5068422;28;20320;-74
2021/12/15 08:27:31;;;;;;;6.80;3.88;;;9.90;99.90;;;;;;5069856;28;20086;-73
2021/12/15 08:29:57;;;;;;;9.32;4.68;;;9.90;99.90;;;;;;5069873;28;20483;-76
2021/12/15 08:32:23;;;;;;;5.78;4.07;;;10.00;99.90;;;;;;5069591;28;20036;-76
2021/12/15 08:34:49;;;;;;;7.80;4.18;;;10.10;99.90;;;;;;5068195;28;20062;-76
2021/12/15 08:37:15;;;;;;;6.78;4.10;;;10.10;99.90;;;;;;5069212;28;20032;-75
2021/12/15 08:39:43;;;;;;;8.25;3.67;;;10.20;99.90;;;;;;5068057;28;20371;-76
2021/12/15 08:42:10;;;;;;;8.88;3.40;;;10.20;99.90;;;;;;5068832;28;20029;-74
2021/12/15 08:44:36;;;;;;;4.65;2.95;;;10.20;99.90;;;;;;5069451;28;20025;-75
2021/12/15 08:47:04;;;;;;;3.92;3.42;;;10.20;99.90;;;;;;5068077;28;20051;-75
2021/12/15 08:49:30;;;;;;;6.72;3.50;;;10.20;99.90;;;;;;5068599;28;20029;-74
2021/12/15 08:51:56;;;;;;;5.15;2.80;;;10.20;99.90;;;;;;5068542;28;20450;-75
2021/12/15 08:54:22;;;;;;;6.40;3.38;;;10.20;99.90;;;;;;5068558;28;20197;-76
2021/12/15 08:56:49;;;;;;;7.65;3.30;;;10.20;99.90;;;;;;5068429;28;20407;-77
2021/12/15 08:59:15;;;;;;;;;;;10.30;99.90;;;;;;5068033;28;20154;-74
2021/12/15 09:01:43;;;;;;;5.28;2.70;;;10.30;99.90;;;;;;5068608;28;20289;-75
2021/12/15 09:04:09;;;;;;;4.60;2.45;;;10.40;99.90;;;;;;5068225;28;20410;-76
2021/12/15 09:06:38;;;;;;;4.40;1.88;;;10.40;99.90;;;;;;5068506;28;20025;-74
2021/12/15 09:09:06;;;;;;;9.32;2.70;;;10.50;99.90;;;;;;5050944;28;20135;-75
2021/12/15 09:11:32;;;;;;;8.05;2.75;;;10.50;99.90;;;;;;5068415;28;20043;-76
2021/12/15 09:14:00;;;;;;;6.80;2.53;;;10.50;99.90;;;;;;5069630;28;20028;-75
2021/12/15 09:16:27;;;;;;;6.28;2.80;;;10.60;99.90;;;;;;5070109;28;20115;-76
2021/12/15 09:18:56;;;;;;;6.95;2.40;;;10.60;99.90;;;;;;5069075;28;20025;-74
2021/12/15 09:21:24;;;;;;;4.57;2.50;;;10.60;99.90;;;;;;5069420;28;20050;-74
2021/12/15 09:23:50;;;;;;;2.45;2.00;;;10.60;99.90;;;;;;5067201;28;20032;-76
2021/12/15 09:26:16;;;;;;;;;;;10.60;99.90;;;;;;5067761;28;20125;-77
2021/12/15 09:28:42;;;;;;;6.45;2.85;;;10.70;99.90;;;;;;5068826;28;19912;-75
2021/12/15 09:31:09;;;;;;;6.32;2.72;;;10.80;99.90;;;;;;5068934;28;20137;-76
2021/12/15 09:33:38;;;;;;;8.25;2.88;;;10.80;99.90;;;;;;5065381;28;20039;-75
2021/12/15 09:36:05;;;;;;;5.00;2.50;;;10.80;99.90;;;;;;5068256;28;20048;-75
2021/12/15 09:38:31;;;;;;;3.85;1.70;;;11.00;99.90;;;;;;5068297;28;20404;-69
2021/12/15 09:40:59;;;;;;;3.65;2.00;;;11.00;99.90;;;;;;5068480;28;20020;-76
2021/12/15 09:43:28;;;;;;;5.95;2.65;;;11.20;99.90;;;;;;5068386;28;20020;-75
2021/12/15 09:46:04;;;;;;;5.97;1.88;;;11.40;99.90;;;;;;5067150;28;20419;-77
2021/12/15 09:57:14;;;;;;;5.10;2.30;;;11.60;99.90;;;;;;5065732;28;20059;-75
2021/12/15 10:02:37;;;;;;;7.47;2.25;;;11.70;99.90;;;;;;5064055;28;20043;-75
2021/12/15 10:05:17;;;;;;;4.63;1.55;;;11.90;99.90;;;;;;5067127;28;20016;-73
2021/12/15 10:11:14;;;;;;;5.85;1.52;;;12.10;99.90;;;;;;5068438;28;20139;-72
2021/12/15 10:19:25;;;;;;;5.20;1.60;;;12.10;99.90;;;;;;5068651;28;20494;-76
2021/12/15 10:22:03;;;;;;;7.50;2.15;;;12.00;99.90;;;;;;5068093;28;20024;-75
2021/12/15 10:24:37;;;;;;;4.25;1.73;;;12.00;99.90;;;;;;5068634;28;20017;-75
2021/12/15 10:27:08;;;;;;;10.77;2.35;;;12.00;99.90;;;;;;5068500;28;20025;-75
2021/12/15 10:29:34;;;;;;;6.22;1.55;;;12.10;99.90;;;;;;5064699;28;20039;-75
2021/12/15 10:32:10;;;;;;;8.07;2.30;;;12.10;99.90;;;;;;5068948;28;20017;-75
2021/12/15 10:34:36;;;;;;;6.15;1.60;;;12.20;99.90;;;;;;5068828;28;20043;-73
2021/12/15 10:37:03;;;;;;;6.45;1.75;;;12.20;99.90;;;;;;5069049;28;20021;-74
2021/12/15 10:39:28;;;;;;;4.30;1.52;;;12.30;99.90;;;;;;5067273;28;20032;-74
2021/12/15 10:41:54;;;;;;;12.10;2.15;;;12.30;99.90;;;;;;5067298;28;20124;-75
2021/12/15 10:44:26;;;;;;;4.93;1.40;;;12.40;99.90;;;;;;5068406;28;20020;-74
2021/12/15 10:47:06;;;;;;;9.20;1.60;;;12.50;99.90;;;;;;5063589;28;20013;-75
2021/12/15 10:49:37;;;;;;;5.07;1.20;;;12.70;99.90;;;;;;5065970;28;20024;-75
2021/12/15 10:52:07;;;;;;;4.50;1.00;;;12.80;99.90;;;;;;5066956;28;20471;-73
2021/12/15 10:54:46;;;;;;;5.50;1.40;;;12.90;99.90;;;;;;5067933;28;20023;-76
2021/12/15 10:57:12;;;;;;;6.32;1.30;;;13.10;99.90;;;;;;5068087;28;20097;-76
2021/12/15 10:59:41;;;;;;;4.35;1.10;;;13.30;99.90;;;;;;5068451;28;20025;-76
2021/12/15 11:02:10;;;;;;;3.50;0.73;;;13.70;99.90;;;;;;5068341;28;20046;-76
2021/12/15 11:04:41;;;;;;;6.32;0.88;;;14.40;99.90;;;;;;5067436;28;20025;-72
2021/12/15 11:07:19;;;;;;;4.00;0.90;;;15.30;99.90;;;;;;5068646;28;20061;-76
2021/12/15 11:09:55;;;;;;;4.57;0.95;;;16.00;99.20;;;;;;5068638;28;20094;-75
2021/12/15 11:12:50;;;;;;;4.70;1.40;;;16.30;98.10;;;;;;5068426;28;20492;-77
2021/12/15 11:15:27;;;;;;;6.03;1.20;;;16.40;97.20;;;;;;5066430;28;20436;-73
2021/12/15 11:18:00;;;;;;;;;;;16.40;96.50;;;;;;5065575;28;20025;-76
2021/12/15 11:20:33;;;;;;;6.47;1.48;;;16.20;96.30;;;;;;5066065;28;19904;-73
2021/12/15 11:23:05;;;;;;;4.95;1.50;;;16.00;96.00;;;;;;5068148;28;20012;-76
2021/12/15 11:25:35;;;;;;;6.63;2.35;;;16.10;96.10;;;;;;5064236;28;20029;-75
2021/12/15 11:28:05;;;;;;;6.90;1.90;;;16.00;95.40;;;;;;5067151;28;20009;-77
2021/12/15 11:30:41;;;;;;;6.03;1.88;;;15.90;95.60;;;;;;5064019;28;20020;-74
2021/12/15 11:33:17;;;;;;;5.38;1.05;;;16.10;96.00;;;;;;5064538;28;20522;-72
2021/12/15 11:35:49;;;;;;;4.40;1.42;;;16.30;95.50;;;;;;5068328;28;20044;-75
2021/12/15 11:38:21;;;;;;;5.43;1.23;;;16.70;95.60;;;;;;5067851;28;20016;-74
2021/12/15 11:40:52;;;;;;;4.75;1.55;;;17.10;95.20;;;;;;5072230;28;20024;-77
2021/12/15 11:43:41;;;;;;;6.65;1.80;;;17.30;94.20;;;;;;5071109;28;20021;-79
2021/12/15 11:46:25;;;;;;;5.38;1.30;;;17.50;93.70;;;;;;5071687;28;20021;-76
2021/12/15 11:49:18;;;;;;;5.03;0.95;;;17.70;93.40;;;;;;5071663;28;20143;-77
2021/12/15 11:51:58;;;;;;;5.78;1.48;;;17.80;92.90;;;;;;5063089;28;20037;-75
2021/12/15 11:54:28;;;;;;;4.88;1.52;;;17.60;92.30;;;;;;5071112;28;20062;-75
2021/12/15 11:56:58;;;;;;;6.35;1.55;;;17.40;92.10;;;;;;5070166;28;20045;-75
2021/12/15 11:59:38;;;;;;;7.60;1.95;;;17.30;92.00;;;;;;5069156;28;20082;-73
2021/12/15 12:02:10;;;;;;;4.85;1.33;;;17.30;91.90;;;;;;5051255;28;20025;-76
2021/12/15 12:04:48;;;;;;;5.18;1.13;;;17.40;92.40;;;;;;5066148;28;20024;-76
2021/12/15 12:07:16;;;;;;;4.97;1.10;;;17.60;92.00;;;;;;5067710;28;20132;-75
2021/12/15 12:09:46;;;;;;;2.72;1.10;;;17.60;91.30;;;;;;5068825;28;20020;-75
2021/12/15 12:12:16;;;;;;;7.25;1.13;;;17.60;91.20;;;;;;5071110;28;20020;-76
2021/12/15 12:14:50;;;;;;;4.05;1.35;;;17.60;91.40;;;;;;5049992;28;20387;-75
2021/12/15 12:17:21;;;;;;;6.53;1.88;;;17.70;91.20;;;;;;5081321;28;20044;-77
2021/12/15 12:19:56;;;;;;;2.50;0.80;;;17.60;90.70;;;;;;5063489;28;20025;-76
2021/12/15 12:22:25;;;;;;;2.60;0.60;;;17.50;90.50;;;;;;5069840;28;20482;-75
2021/12/15 12:24:57;;;;;;;4.60;1.30;;;17.40;90.10;;;;;;5071020;28;20048;-74
2021/12/15 12:27:26;;;;;;;7.10;1.10;;;17.10;90.00;;;;;;5069464;28;20024;-76
2021/12/15 12:29:56;;;;;;;1.90;0.63;;;16.70;89.20;;;;;;5070755;28;20025;-75
2021/12/15 12:32:22;;;;;;;6.90;1.70;;;16.10;89.50;;;;;;5070943;28;20062;-75
2021/12/15 12:34:50;;;;;;;4.65;1.75;;;15.60;89.90;;;;;;5071478;28;20029;-76
2021/12/15 12:37:17;;;;;;;6.85;1.38;;;15.10;90.30;;;;;;5070816;28;20041;-76
2021/12/15 12:39:45;;;;;;;4.13;1.40;;;14.70;90.70;;;;;;5069459;28;20096;-74
2021/12/15 12:42:35;;;;;;;8.80;1.40;;;14.40;91.10;;;;;;5071046;28;20032;-75
2021/12/15 12:45:15;;;;;;;3.28;0.85;;;14.20;91.60;;;;;;5069494;28;20115;-74
2021/12/15 12:48:03;;;;;;;3.22;1.10;;;14.00;91.90;;;;;;5068580;28;20036;-76
2021/12/15 12:59:36;;;;;;;4.38;1.38;;;13.60;92.90;;;;;;5070849;28;20121;-74
2021/12/15 13:02:10;;;;;;;5.40;1.42;;;13.50;93.20;;;;;;5069892;28;20017;-74
2021/12/15 13:04:40;;;;;;;4.25;1.33;;;13.60;93.50;;;;;;5070004;28;20059;-74
2021/12/15 13:07:06;;;;;;;5.28;1.30;;;13.60;93.50;;;;;;5069904;28;20092;-74
2021/12/15 13:09:51;;;;;;;7.22;2.30;;;13.60;93.50;;;;;;5070548;28;20566;-76
2021/12/15 13:12:28;;;;;;;3.90;1.45;;;13.60;93.70;;;;;;5070075;28;20579;-75
2021/12/15 13:14:56;;;;;;;4.90;1.30;;;13.60;93.90;;;;;;5070032;28;20524;-76
2021/12/15 13:17:27;;;;;;;4.57;2.30;;;13.50;93.80;;;;;;5069573;28;20044;-75
2021/12/15 13:19:55;;;;;;;9.90;4.35;;;13.50;93.90;;;;;;5069569;28;20043;-74
2021/12/15 13:22:47;;;;;;;4.85;1.83;;;13.50;94.00;;;;;;5067982;28;20036;-75
2021/12/15 13:31:08;;;;;;;4.18;1.38;;;13.50;94.30;;;;;;5066583;28;20130;-74
2021/12/15 13:33:38;;;;;;;2.63;1.33;;;13.40;94.40;;;;;;5069075;28;20174;-76
2021/12/15 13:36:06;;;;;;;3.35;1.30;;;13.40;94.40;;;;;;5069846;28;20070;-77
2021/12/15 13:38:40;;;;;;;4.88;1.55;;;13.30;94.50;;;;;;5069797;28;20052;-76
2021/12/15 13:44:47;;;;;;;2.92;1.23;;;13.30;94.70;;;;;;5069870;28;20096;-76
2021/12/15 13:47:21;;;;;;;3.90;1.25;;;13.30;94.80;;;;;;5067485;28;20013;-69
2021/12/15 13:50:17;;;;;;;4.15;1.33;;;13.20;94.90;;;;;;5069437;28;20134;-77
2021/12/15 13:52:45;;;;;;;3.38;1.42;;;13.20;95.00;;;;;;5066913;28;20028;-76
2021/12/15 13:55:16;;;;;;;5.03;1.80;;;13.20;95.00;;;;;;5069637;28;20091;-74
2021/12/15 13:57:50;;;;;;;2.78;1.25;;;13.20;95.10;;;;;;5068665;28;20045;-74
2021/12/15 14:00:33;;;;;;;4.88;1.73;;;13.20;95.20;;;;;;5068768;28;20016;-77
2021/12/15 14:03:12;;;;;;;4.78;2.08;;;13.20;95.30;;;;;;5066183;28;20070;-73
2021/12/15 14:05:40;;;;;;;4.28;1.10;;;13.20;95.50;;;;;;5067184;28;20073;-76
2021/12/15 14:08:10;;;;;;;8.95;2.83;;;13.30;95.60;;;;;;5067121;28;20016;-77
2021/12/15 14:10:36;;;;;;;2.45;0.77;;;13.30;95.70;;;;;;5068504;28;20093;-73
2021/12/15 14:13:05;;;;;;;2.38;1.00;;;13.40;96.00;;;;;;5068689;28;20472;-80
2021/12/15 14:15:43;;;;;;;5.68;1.23;;;13.60;96.20;;;;;;5068943;28;20028;-76
2021/12/15 14:18:31;;;;;;;1.65;0.70;;;13.70;96.10;;;;;;5064267;28;20040;-75
2021/12/15 14:21:08;;;;;;;2.40;0.70;;;13.70;96.00;;;;;;5069358;28;20024;-75
2021/12/15 14:23:42;;;;;;;5.28;1.38;;;13.70;96.00;;;;;;5067686;28;20418;-76
2021/12/15 14:26:12;;;;;;;3.90;1.30;;;13.70;95.70;;;;;;5066458;28;20023;-71
2021/12/15 14:28:46;;;;;;;6.25;1.95;;;13.60;95.50;;;;;;5068772;28;20087;-75
2021/12/15 14:31:17;;;;;;;3.38;0.95;;;13.40;95.40;;;;;;5058637;28;20483;-77